createdAt,value
2019-05-07T00:02:10.825Z,72.58
2019-05-07T00:04:37.146Z,72.48
2019-05-07T00:07:03.452Z,72.43
2019-05-07T00:09:32.131Z,72.48
2019-05-07T00:11:56.093Z,72.14
2019-05-07T00:14:23.067Z,72.39
2019-05-07T00:16:48.756Z,72.24
2019-05-07T00:19:15.087Z,72.33
2019-05-07T00:21:42.285Z,72.17
2019-05-07T00:24:07.710Z,72.36
2019-05-07T00:26:34.037Z,72.03
2019-05-07T00:29:02.242Z,72.00
2019-05-07T00:31:26.660Z,71.92
2019-05-07T00:33:53.010Z,71.96
2019-05-07T00:36:19.308Z,71.64
2019-05-07T00:38:45.637Z,71.70
2019-05-07T00:41:12.359Z,71.68
2019-05-07T00:43:38.261Z,71.38
2019-05-07T00:46:04.590Z,71.57
2019-05-07T00:48:32.814Z,71.23
2019-05-07T00:50:57.223Z,70.82
2019-05-07T00:53:23.795Z,70.84
2019-05-07T00:55:49.859Z,70.92
2019-05-07T00:58:16.162Z,71.11
2019-05-07T01:00:42.491Z,71.32
2019-05-07T01:03:08.898Z,71.30
2019-05-07T01:05:35.196Z,71.37
2019-05-07T01:08:02.595Z,71.54
2019-05-07T01:10:27.843Z,71.42
2019-05-07T01:12:54.165Z,71.02
2019-05-07T01:15:28.814Z,70.93
2019-05-07T01:17:46.816Z,70.82
2019-05-07T01:20:13.133Z,70.70
2019-05-07T01:22:39.438Z,71.05
2019-05-07T01:25:05.776Z,70.99
2019-05-07T01:27:32.270Z,70.84
2019-05-07T01:29:58.405Z,71.00
2019-05-07T01:32:24.713Z,70.90
2019-05-07T01:34:52.484Z,70.62
2019-05-07T01:37:17.345Z,70.73
2019-05-07T01:39:43.647Z,70.67
2019-05-07T01:42:09.974Z,70.42
2019-05-07T01:44:36.274Z,70.41
2019-05-07T01:47:02.773Z,70.72
2019-05-07T01:49:28.927Z,70.62
2019-05-07T01:51:55.238Z,70.69
2019-05-07T01:54:23.490Z,70.60
2019-05-07T01:56:47.883Z,70.53
2019-05-07T01:59:14.187Z,70.59
2019-05-07T02:01:42.718Z,70.69
2019-05-07T02:04:06.815Z,70.58
2019-05-07T02:06:33.147Z,70.48
2019-05-07T02:08:59.451Z,70.33
2019-05-07T02:11:25.774Z,70.40
2019-05-07T02:13:52.966Z,70.55
2019-05-07T02:16:18.416Z,70.46
2019-05-07T02:18:44.733Z,70.54
2019-05-07T02:21:12.931Z,70.58
2019-05-07T02:23:37.359Z,70.62
2019-05-07T02:26:03.659Z,70.77
2019-05-07T02:28:29.987Z,70.98
2019-05-07T02:30:56.294Z,71.13
2019-05-07T02:33:23.104Z,71.24
2019-05-07T02:35:48.938Z,71.18
2019-05-07T02:38:15.240Z,71.16
2019-05-07T02:40:43.292Z,71.15
2019-05-07T02:43:07.856Z,71.37
2019-05-07T02:45:34.177Z,71.59
2019-05-07T02:48:03.258Z,71.59
2019-05-07T02:50:26.864Z,71.67
2019-05-07T02:52:53.833Z,71.66
2019-05-07T02:55:19.511Z,71.87
2019-05-07T02:57:45.840Z,72.07
2019-05-07T03:00:14.612Z,72.05
2019-05-07T03:02:38.480Z,71.69
2019-05-07T03:05:05.392Z,71.74
2019-05-07T03:07:33.488Z,71.84
2019-05-07T03:09:57.426Z,72.22
2019-05-07T03:12:23.976Z,72.67
2019-05-07T03:14:53.363Z,72.97
2019-05-07T03:17:16.371Z,73.19
2019-05-07T03:19:43.119Z,73.10
2019-05-07T03:22:09.004Z,72.97
2019-05-07T03:24:35.310Z,73.11
2019-05-07T03:27:03.207Z,73.14
2019-05-07T03:29:27.943Z,73.17
2019-05-07T03:31:56.103Z,72.94
2019-05-07T03:34:25.127Z,72.77
2019-05-07T03:36:48.560Z,72.69
2019-05-07T03:39:14.515Z,72.62
2019-05-07T03:41:39.513Z,72.65
2019-05-07T03:44:05.844Z,72.59
2019-05-07T03:46:33.681Z,72.41
2019-05-07T03:48:58.471Z,72.45
2019-05-07T03:51:24.782Z,72.40
2019-05-07T03:53:53.447Z,72.45
2019-05-07T03:56:17.426Z,72.59
2019-05-07T03:58:43.872Z,72.59
2019-05-07T04:01:13.159Z,72.78
2019-05-07T04:03:36.365Z,73.02
2019-05-07T04:06:03.826Z,73.25
2019-05-07T04:08:28.988Z,73.20
2019-05-07T04:10:55.315Z,72.87
2019-05-07T04:13:24.039Z,72.81
2019-05-07T04:15:47.932Z,72.97
2019-05-07T04:18:14.271Z,84.13
2019-05-07T04:20:43.527Z,100.00
2019-05-07T04:23:06.935Z,100.00
2019-05-07T04:25:34.708Z,100.00
2019-05-07T04:27:59.553Z,100.00
2019-05-07T04:30:25.884Z,100.00
2019-05-07T04:32:53.052Z,100.00
2019-05-07T04:35:18.513Z,91.97
2019-05-07T04:37:44.828Z,85.75
2019-05-07T04:40:13.484Z,82.28
2019-05-07T04:42:37.465Z,80.60
2019-05-07T04:45:04.471Z,92.10
2019-05-07T04:47:38.731Z,100.00
2019-05-07T04:49:56.405Z,100.00
2019-05-07T04:52:23.869Z,100.00
2019-05-07T04:54:49.062Z,100.00
2019-05-07T04:57:15.374Z,100.00
2019-05-07T04:59:42.905Z,100.00
2019-05-07T05:02:08.011Z,100.00
2019-05-07T05:04:35.091Z,100.00
2019-05-07T05:07:02.617Z,100.00
2019-05-07T05:09:26.973Z,99.27
2019-05-07T05:11:53.280Z,95.71
2019-05-07T05:14:22.589Z,92.38
2019-05-07T05:16:45.900Z,90.33
2019-05-07T05:19:12.676Z,90.93
2019-05-07T05:21:38.624Z,90.37
2019-05-07T05:24:04.944Z,89.20
2019-05-07T05:26:32.506Z,88.34
2019-05-07T05:28:57.579Z,87.62
2019-05-07T05:31:23.887Z,87.43
2019-05-07T05:33:52.455Z,87.42
2019-05-07T05:36:16.513Z,87.65
2019-05-07T05:38:42.822Z,87.53
2019-05-07T05:41:09.148Z,87.60
2019-05-07T05:43:35.474Z,88.37
2019-05-07T05:46:02.732Z,89.19
2019-05-07T05:48:28.103Z,89.73
2019-05-07T05:50:54.405Z,89.69
2019-05-07T05:53:21.861Z,89.74
2019-05-07T05:55:47.029Z,89.51
2019-05-07T05:58:13.333Z,89.18
2019-05-07T06:00:42.157Z,89.59
2019-05-07T06:03:06.048Z,90.32
2019-05-07T06:05:34.324Z,90.13
2019-05-07T06:07:58.685Z,90.41
2019-05-07T06:10:25.020Z,89.60
2019-05-07T06:12:52.255Z,89.02
2019-05-07T06:15:17.675Z,87.71
2019-05-07T06:17:44.068Z,87.37
2019-05-07T06:20:12.147Z,86.60
2019-05-07T06:22:36.699Z,86.10
2019-05-07T06:25:03.051Z,86.16
2019-05-07T06:27:29.362Z,85.08
2019-05-07T06:29:55.668Z,85.01
2019-05-07T06:32:22.923Z,85.03
2019-05-07T06:34:48.360Z,85.01
2019-05-07T06:38:53.188Z,88.40
2019-05-07T06:41:18.990Z,88.24
2019-05-07T06:43:45.325Z,88.02
2019-05-07T06:46:12.533Z,87.51
2019-05-07T06:48:42.852Z,85.44
2019-05-07T06:51:04.266Z,85.57
2019-05-07T06:53:32.990Z,86.32
2019-05-07T06:55:56.875Z,85.35
2019-05-07T06:58:23.183Z,85.35
2019-05-07T07:00:49.517Z,84.93
2019-05-07T07:03:15.819Z,84.60
2019-05-07T07:05:42.613Z,84.31
2019-05-07T07:08:08.427Z,83.84
2019-05-07T07:10:34.732Z,83.19
2019-05-07T07:13:02.398Z,83.01
2019-05-07T07:15:27.342Z,83.03
2019-05-07T07:17:53.643Z,83.06
2019-05-07T07:20:21.898Z,83.17
2019-05-07T07:22:46.253Z,83.72
2019-05-07T07:25:12.568Z,84.12
2019-05-07T07:27:38.878Z,84.75
2019-05-07T07:30:05.194Z,85.23
2019-05-07T07:32:31.820Z,85.30
2019-05-07T07:34:57.930Z,85.91
2019-05-07T07:37:24.237Z,86.09
2019-05-07T07:39:52.427Z,85.84
2019-05-07T07:42:16.937Z,85.87
2019-05-07T07:44:43.266Z,86.69
2019-05-07T07:47:09.569Z,87.44
2019-05-07T07:49:35.870Z,86.53
2019-05-07T07:52:03.157Z,86.29
2019-05-07T07:54:28.556Z,86.38
2019-05-07T07:56:56.622Z,86.98
2019-05-07T07:59:22.149Z,85.09
2019-05-07T08:01:47.480Z,84.22
2019-05-07T08:04:13.792Z,85.42
2019-05-07T08:06:42.072Z,85.44
2019-05-07T08:09:06.400Z,84.66
2019-05-07T08:11:33.740Z,84.71
2019-05-07T08:14:02.213Z,85.06
2019-05-07T08:16:26.525Z,86.03
2019-05-07T08:18:53.368Z,86.88
2019-05-07T08:21:19.679Z,86.40
2019-05-07T08:23:46.047Z,86.18
2019-05-07T08:26:12.702Z,86.35
2019-05-07T08:28:38.656Z,86.45
2019-05-07T08:31:04.964Z,86.55
2019-05-07T08:33:32.246Z,86.54
2019-05-07T08:35:57.576Z,86.20
2019-05-07T08:38:23.930Z,86.97
2019-05-07T08:40:51.989Z,87.12
2019-05-07T08:43:16.556Z,86.54
2019-05-07T08:45:43.255Z,85.26
2019-05-07T08:48:09.248Z,84.50
2019-05-07T08:50:35.660Z,84.95
2019-05-07T08:53:02.757Z,85.35
2019-05-07T08:55:28.281Z,85.82
2019-05-07T08:57:54.611Z,86.15
2019-05-07T09:00:22.367Z,85.71
2019-05-07T09:02:47.200Z,86.17
2019-05-07T09:05:13.511Z,87.24
2019-05-07T09:07:39.813Z,86.49
2019-05-07T09:10:06.119Z,85.59
2019-05-07T09:12:32.428Z,84.65
2019-05-07T09:14:58.732Z,84.47
2019-05-07T09:17:25.055Z,84.48
2019-05-07T09:19:54.492Z,85.30
2019-05-07T09:22:17.664Z,86.40
2019-05-07T09:24:43.968Z,86.33
2019-05-07T09:27:12.048Z,87.05
2019-05-07T09:29:36.584Z,86.06
2019-05-07T09:32:03.074Z,85.00
2019-05-07T09:34:29.196Z,83.89
2019-05-07T09:36:55.543Z,83.75
2019-05-07T09:39:22.143Z,83.82
2019-05-07T09:41:48.128Z,84.14
2019-05-07T09:44:14.436Z,83.70
2019-05-07T09:46:42.908Z,82.63
2019-05-07T09:49:07.056Z,83.27
2019-05-07T09:51:33.380Z,82.38
2019-05-07T09:53:59.674Z,80.83
2019-05-07T09:56:25.981Z,79.98
2019-05-07T09:58:53.032Z,80.04
2019-05-07T10:01:18.665Z,80.33
2019-05-07T10:03:44.972Z,80.60
2019-05-07T10:06:12.454Z,81.12
2019-05-07T10:08:37.593Z,82.02
2019-05-07T10:11:03.905Z,81.11
2019-05-07T10:13:30.203Z,81.06
2019-05-07T10:15:56.521Z,81.54
2019-05-07T10:18:22.961Z,82.03
2019-05-07T10:20:49.132Z,81.48
2019-05-07T10:23:15.440Z,80.70
2019-05-07T10:25:41.785Z,80.45
2019-05-07T10:28:08.132Z,80.65
2019-05-07T10:30:34.409Z,81.00
2019-05-07T10:33:01.775Z,81.01
2019-05-07T10:35:27.030Z,81.20
2019-05-07T10:37:53.361Z,82.01
2019-05-07T10:40:19.678Z,82.19
2019-05-07T10:42:45.989Z,82.83
2019-05-07T10:45:13.056Z,82.22
2019-05-07T10:47:38.628Z,81.36
2019-05-07T10:50:04.952Z,81.86
2019-05-07T10:52:31.912Z,81.95
2019-05-07T10:54:59.958Z,81.67
2019-05-07T10:57:23.888Z,82.04
2019-05-07T10:59:52.250Z,81.87
2019-05-07T11:02:16.521Z,82.79
2019-05-07T11:04:45.740Z,82.36
2019-05-07T11:07:09.155Z,82.12
2019-05-07T11:09:35.475Z,82.45
2019-05-07T11:12:02.619Z,82.05
2019-05-07T11:14:28.098Z,81.08
2019-05-07T11:16:54.422Z,80.17
2019-05-07T11:19:22.103Z,80.42
2019-05-07T11:21:47.043Z,80.73
2019-05-07T11:24:13.338Z,80.70
2019-05-07T11:26:41.506Z,80.94
2019-05-07T11:29:05.992Z,81.70
2019-05-07T11:31:33.174Z,82.12
2019-05-07T11:33:58.625Z,82.14
2019-05-07T11:36:24.945Z,82.11
2019-05-07T11:38:52.702Z,82.93
2019-05-07T11:41:17.577Z,83.35
2019-05-07T11:43:43.910Z,82.90
2019-05-07T11:46:10.209Z,83.11
2019-05-07T11:48:36.563Z,83.50
2019-05-07T11:51:04.294Z,83.54
2019-05-07T11:53:29.170Z,82.39
2019-05-07T11:55:55.499Z,82.90
2019-05-07T11:58:22.081Z,83.67
2019-05-07T12:00:48.130Z,83.45
2019-05-07T12:03:14.437Z,83.02
2019-05-07T12:05:42.304Z,82.80
2019-05-07T12:08:07.071Z,83.44
2019-05-07T12:10:33.420Z,83.38
2019-05-07T12:13:02.174Z,83.71
2019-05-07T12:15:26.081Z,83.74
2019-05-07T12:17:52.400Z,83.45
2019-05-07T12:20:18.708Z,83.42
2019-05-07T12:22:45.053Z,83.41
2019-05-07T12:25:12.153Z,82.87
2019-05-07T12:27:37.664Z,82.97
2019-05-07T12:30:03.986Z,83.20
2019-05-07T12:32:32.251Z,83.49
2019-05-07T12:34:56.622Z,83.66
2019-05-07T12:37:22.947Z,84.18
2019-05-07T12:39:49.247Z,84.68
2019-05-07T12:42:15.581Z,84.88
2019-05-07T12:44:42.473Z,84.90
2019-05-07T12:47:08.219Z,85.30
2019-05-07T12:49:34.524Z,85.03
2019-05-07T12:52:02.300Z,84.82
2019-05-07T12:54:27.163Z,84.81
2019-05-07T12:56:53.473Z,84.75
2019-05-07T12:59:21.715Z,84.87
2019-05-07T13:01:46.103Z,85.13
2019-05-07T13:04:12.509Z,85.50
2019-05-07T13:06:38.790Z,85.37
2019-05-07T13:09:05.122Z,85.50
2019-05-07T13:11:32.573Z,85.66
2019-05-07T13:13:57.755Z,85.78
2019-05-07T13:16:24.076Z,85.56
2019-05-07T13:18:52.449Z,85.53
2019-05-07T13:21:16.719Z,85.30
2019-05-07T13:23:43.024Z,85.51
2019-05-07T13:26:09.344Z,85.76
2019-05-07T13:28:35.648Z,85.83
2019-05-07T13:31:02.429Z,86.46
2019-05-07T13:33:28.334Z,86.78
2019-05-07T13:35:54.630Z,86.24
2019-05-07T13:38:23.476Z,86.43
2019-05-07T13:40:47.249Z,86.57
2019-05-07T13:43:13.577Z,86.89
2019-05-07T13:45:41.673Z,86.81
2019-05-07T13:48:06.205Z,87.36
2019-05-07T13:50:32.643Z,100.00
2019-05-07T13:52:58.845Z,100.00
2019-05-07T13:55:25.155Z,100.00
2019-05-07T13:57:52.423Z,100.00
2019-05-07T14:00:17.793Z,94.29
2019-05-07T14:02:44.128Z,88.50
2019-05-07T14:05:14.056Z,85.74
2019-05-07T14:07:36.760Z,84.84
2019-05-07T14:10:03.104Z,85.39
2019-05-07T14:12:29.431Z,85.91
2019-05-07T14:14:55.755Z,86.26
2019-05-07T14:17:22.073Z,86.25
2019-05-07T14:19:48.388Z,86.35
2019-05-07T14:22:18.683Z,86.41
2019-05-07T14:24:42.256Z,87.05
2019-05-07T14:27:07.314Z,87.35
2019-05-07T14:29:33.638Z,87.63
2019-05-07T14:32:02.152Z,87.56
2019-05-07T14:34:26.269Z,87.73
2019-05-07T14:36:52.597Z,87.61
2019-05-07T14:39:18.929Z,87.49
2019-05-07T14:41:45.236Z,87.19
2019-05-07T14:44:12.064Z,87.05
2019-05-07T14:46:47.260Z,87.37
2019-05-07T14:49:04.207Z,87.59
2019-05-07T14:51:32.394Z,87.72
2019-05-07T14:53:56.815Z,88.08
2019-05-07T14:56:23.282Z,88.31
2019-05-07T14:58:51.570Z,88.33
2019-05-07T15:01:15.795Z,88.44
2019-05-07T15:03:42.378Z,88.46
2019-05-07T15:06:08.424Z,88.50
2019-05-07T15:08:34.753Z,88.84
2019-05-07T15:11:02.736Z,89.42
2019-05-07T15:13:27.360Z,89.69
2019-05-07T15:15:53.757Z,89.53
2019-05-07T15:18:20.035Z,89.77
2019-05-07T15:20:46.411Z,90.41
2019-05-07T15:23:12.726Z,90.63
2019-05-07T15:25:39.089Z,90.73
2019-05-07T15:28:05.345Z,90.68
2019-05-07T15:30:32.458Z,90.79
2019-05-07T15:32:58.063Z,91.59
2019-05-07T15:35:24.378Z,98.53
2019-05-07T15:37:51.824Z,100.00
2019-05-07T15:40:17.022Z,100.00
2019-05-07T15:42:43.350Z,100.00
2019-05-07T15:45:09.675Z,100.00
2019-05-07T15:47:35.998Z,100.00
2019-05-07T15:50:02.305Z,100.00
2019-05-07T15:52:28.858Z,100.00
2019-05-07T15:54:55.196Z,100.00
2019-05-07T15:57:22.340Z,100.00
2019-05-07T15:59:47.826Z,100.00
2019-05-07T16:02:14.129Z,100.00
2019-05-07T16:04:40.456Z,100.00
2019-05-07T16:07:06.759Z,100.00
2019-05-07T16:09:33.089Z,100.00
2019-05-07T16:11:59.418Z,100.00
2019-05-07T16:14:26.707Z,100.00
2019-05-07T16:16:52.065Z,100.00
2019-05-07T16:19:18.374Z,100.00
2019-05-07T16:21:44.686Z,100.00
2019-05-07T16:24:12.115Z,100.00
2019-05-07T16:26:37.322Z,100.00
2019-05-07T16:29:04.720Z,100.00
2019-05-07T16:31:29.994Z,100.00
2019-05-07T16:33:56.309Z,100.00
2019-05-07T16:36:22.635Z,100.00
2019-05-07T16:38:48.945Z,100.00
2019-05-07T16:41:15.277Z,100.00
2019-05-07T16:43:42.909Z,100.00
2019-05-07T16:46:07.928Z,100.00
2019-05-07T16:48:34.235Z,100.00
2019-05-07T16:51:02.618Z,100.00
2019-05-07T16:53:30.264Z,100.00
2019-05-07T16:55:56.717Z,100.00
2019-05-07T16:58:23.467Z,100.00
2019-05-07T17:00:49.355Z,100.00
2019-05-07T17:03:15.692Z,100.00
2019-05-07T17:05:42.834Z,100.00
2019-05-07T17:08:08.322Z,100.00
2019-05-07T17:10:34.645Z,100.00
2019-05-07T17:13:02.836Z,100.00
2019-05-07T17:15:27.628Z,100.00
2019-05-07T17:17:53.947Z,100.00
2019-05-07T17:20:21.974Z,100.00
2019-05-07T17:22:46.570Z,100.00
2019-05-07T17:25:13.159Z,100.00
2019-05-07T17:27:39.288Z,100.00
2019-05-07T17:30:05.740Z,100.00
2019-05-07T17:32:32.225Z,100.00
2019-05-07T17:34:58.373Z,100.00
2019-05-07T17:37:24.718Z,100.00
2019-05-07T17:39:52.281Z,100.00
2019-05-07T17:42:17.540Z,100.00
2019-05-07T17:44:43.868Z,100.00
2019-05-07T17:47:12.636Z,100.00
2019-05-07T17:49:36.589Z,100.00
2019-05-07T17:52:03.031Z,100.00
2019-05-07T17:54:29.128Z,100.00
2019-05-07T17:56:55.503Z,100.00
2019-05-07T17:59:21.816Z,100.00
2019-05-07T18:01:50.105Z,100.00
2019-05-07T18:04:14.462Z,100.00
2019-05-07T18:06:42.673Z,100.00
2019-05-07T18:09:07.340Z,100.00
2019-05-07T18:11:33.696Z,100.00
2019-05-07T18:14:02.426Z,100.00
2019-05-07T18:16:26.434Z,100.00
2019-05-07T18:18:52.770Z,100.00
2019-05-07T18:21:19.121Z,100.00
2019-05-07T18:23:45.533Z,100.00
2019-05-07T18:26:16.421Z,100.00
2019-05-07T18:28:38.290Z,100.00
2019-05-07T18:31:04.656Z,100.00
2019-05-07T18:33:30.963Z,100.00
2019-05-07T18:35:57.315Z,100.00
2019-05-07T18:38:23.639Z,100.00
2019-05-07T18:40:49.974Z,100.00
2019-05-07T18:43:16.294Z,100.00
2019-05-07T18:45:42.631Z,100.00
2019-05-07T18:48:08.969Z,100.00
2019-05-07T18:50:35.279Z,100.00
2019-05-07T18:53:02.839Z,100.00
2019-05-07T18:55:28.021Z,100.00
2019-05-07T18:57:54.380Z,100.00
2019-05-07T19:00:22.111Z,100.00
2019-05-07T19:02:47.013Z,100.00
2019-05-07T19:05:13.379Z,100.00
2019-05-07T19:07:42.172Z,100.00
2019-05-07T19:10:08.446Z,100.00
2019-05-07T19:12:34.809Z,100.00
2019-05-07T19:15:02.937Z,100.00
2019-05-07T19:17:27.587Z,100.00
2019-05-07T19:19:53.884Z,100.00
2019-05-07T19:22:22.090Z,100.00
2019-05-07T19:24:48.139Z,100.00
2019-05-07T19:27:12.821Z,100.00
2019-05-07T19:29:42.331Z,100.00
2019-05-07T19:32:05.456Z,100.00
2019-05-07T19:34:32.453Z,100.00
2019-05-07T19:36:58.117Z,100.00
2019-05-07T19:39:24.716Z,100.00
2019-05-07T19:41:52.376Z,100.00
2019-05-07T19:44:17.352Z,100.00
2019-05-07T19:46:43.688Z,100.00
2019-05-07T19:49:10.053Z,100.00
2019-05-07T19:51:36.324Z,100.00
2019-05-07T19:54:02.652Z,100.00
2019-05-07T19:56:29.026Z,100.00
2019-05-07T19:58:55.355Z,100.00
2019-05-07T20:01:22.772Z,100.00
2019-05-07T20:03:48.012Z,100.00
2019-05-07T20:06:14.331Z,100.00
2019-05-07T20:08:40.643Z,100.00
2019-05-07T20:11:06.977Z,100.00
2019-05-07T20:13:33.281Z,100.00
2019-05-07T20:15:59.594Z,100.00
2019-05-07T20:18:25.917Z,100.00
2019-05-07T20:20:52.221Z,100.00
2019-05-07T20:23:18.556Z,100.00
2019-05-07T20:25:44.878Z,100.00
2019-05-07T20:28:12.694Z,100.00
2019-05-07T20:30:37.524Z,100.00
2019-05-07T20:33:03.861Z,100.00
2019-05-07T20:35:32.403Z,100.00
2019-05-07T20:37:56.499Z,100.00
2019-05-07T20:40:22.901Z,100.00
2019-05-07T20:42:49.230Z,100.00
2019-05-07T20:45:15.545Z,100.00
2019-05-07T20:47:42.241Z,100.00
2019-05-07T20:50:08.180Z,100.00
2019-05-07T20:52:34.515Z,100.00
2019-05-07T20:55:00.841Z,100.00
2019-05-07T20:57:27.208Z,100.00
2019-05-07T20:59:53.534Z,100.00
2019-05-07T21:02:19.870Z,100.00
2019-05-07T21:04:46.200Z,100.00
2019-05-07T21:07:12.506Z,100.00
2019-05-07T21:09:38.853Z,100.00
2019-05-07T21:12:05.157Z,100.00
2019-05-07T21:14:32.426Z,100.00
2019-05-07T21:16:57.959Z,100.00
2019-05-07T21:19:24.279Z,100.00
2019-05-07T21:21:50.599Z,100.00
2019-05-07T21:24:16.906Z,100.00
2019-05-07T21:26:43.277Z,100.00
2019-05-07T21:29:09.573Z,100.00
2019-05-07T21:31:35.989Z,100.00
2019-05-07T21:34:03.091Z,100.00
2019-05-07T21:36:28.619Z,100.00
2019-05-07T21:38:54.950Z,100.00
2019-05-07T21:41:22.762Z,100.00
2019-05-07T21:43:47.564Z,100.00
2019-05-07T21:46:13.890Z,100.00
2019-05-07T21:48:40.262Z,100.00
2019-05-07T21:51:06.653Z,100.00
2019-05-07T21:53:32.991Z,100.00
2019-05-07T21:56:02.539Z,100.00
2019-05-07T21:58:25.628Z,100.00
2019-05-07T22:00:52.064Z,100.00
2019-05-07T22:03:18.305Z,100.00
2019-05-07T22:05:44.621Z,100.00
2019-05-07T22:08:12.513Z,100.00
2019-05-07T22:10:37.247Z,100.00
2019-05-07T22:13:03.572Z,100.00
2019-05-07T22:15:31.839Z,100.00
2019-05-07T22:17:56.237Z,100.00
2019-05-07T22:20:22.548Z,100.00
2019-05-07T22:22:48.853Z,100.00
2019-05-07T22:25:15.189Z,100.00
2019-05-07T22:27:42.192Z,100.00
2019-05-07T22:30:07.858Z,100.00
2019-05-07T22:32:34.170Z,100.00
2019-05-07T22:35:02.612Z,100.00
2019-05-07T22:37:26.810Z,100.00
2019-05-07T22:39:53.141Z,100.00
2019-05-07T22:42:19.475Z,100.00
2019-05-07T22:44:45.776Z,100.00
2019-05-07T22:47:12.355Z,100.00
2019-05-07T22:49:38.414Z,100.00
2019-05-07T22:52:04.724Z,100.00
2019-05-07T22:54:31.932Z,100.00
2019-05-07T22:56:57.403Z,100.00
2019-05-07T22:59:23.725Z,100.00
2019-05-07T23:01:51.689Z,100.00
2019-05-07T23:04:16.373Z,100.00
2019-05-07T23:06:43.691Z,100.00
2019-05-07T23:09:09.011Z,100.00
2019-05-07T23:11:35.337Z,100.00
2019-05-07T23:14:02.608Z,100.00
2019-05-07T23:16:27.977Z,100.00
2019-05-07T23:18:54.281Z,100.00
2019-05-07T23:21:24.328Z,100.00
2019-05-07T23:23:46.921Z,100.00
2019-05-07T23:26:14.801Z,100.00
2019-05-07T23:28:41.714Z,100.00
2019-05-07T23:31:05.878Z,100.00
2019-05-07T23:33:32.294Z,100.00
2019-05-07T23:35:58.511Z,100.00
2019-05-07T23:38:24.842Z,100.00
2019-05-07T23:40:52.548Z,100.00
2019-05-07T23:43:17.467Z,100.00
2019-05-07T23:45:43.798Z,100.00
2019-05-07T23:48:12.196Z,100.00
2019-05-07T23:50:36.433Z,100.00
2019-05-07T23:53:02.741Z,100.00
2019-05-07T23:55:29.075Z,100.00
2019-05-07T23:57:55.376Z,100.00
